sensor_id;sensor_type;location;lat;lon;timestamp;pressure;altitude;pressure_sealevel;temperature;humidity
48204;BME280;33994;50.998;5.864;2023-05-03T00:02:38;102278.06;;;7.04;69.28
48204;BME280;33994;50.998;5.864;2023-05-03T00:05:41;102272.81;;;7.01;69.17
48204;BME280;33994;50.998;5.864;2023-05-03T00:08:45;102283.06;;;6.95;69.26
48204;BME280;33994;50.998;5.864;2023-05-03T00:11:48;102281.91;;;6.82;69.92
48204;BME280;33994;50.998;5.864;2023-05-03T00:14:51;102278.38;;;6.79;69.94
48204;BME280;33994;50.998;5.864;2023-05-03T00:17:56;102271.63;;;6.87;70.06
48204;BME280;33994;50.998;5.864;2023-05-03T00:20:59;102273.38;;;6.90;70.23
48204;BME280;33994;50.998;5.864;2023-05-03T00:24:03;102276.81;;;6.87;69.96
48204;BME280;33994;50.998;5.864;2023-05-03T00:27:06;102270.63;;;6.82;70.01
48204;BME280;33994;50.998;5.864;2023-05-03T00:30:10;102268.78;;;6.78;70.54
48204;BME280;33994;50.998;5.864;2023-05-03T00:33:14;102271.28;;;6.73;70.42
48204;BME280;33994;50.998;5.864;2023-05-03T00:36:18;102272.16;;;6.74;70.67
48204;BME280;33994;50.998;5.864;2023-05-03T00:39:21;102273.94;;;6.75;70.90
48204;BME280;33994;50.998;5.864;2023-05-03T00:42:24;102261.81;;;6.75;70.86
48204;BME280;33994;50.998;5.864;2023-05-03T00:45:29;102269.53;;;6.72;71.00
48204;BME280;33994;50.998;5.864;2023-05-03T00:48:34;102274.63;;;6.68;71.11
48204;BME280;33994;50.998;5.864;2023-05-03T00:51:37;102274.53;;;6.63;71.49
48204;BME280;33994;50.998;5.864;2023-05-03T00:54:40;102275.25;;;6.57;71.45
48204;BME280;33994;50.998;5.864;2023-05-03T00:57:43;102276.84;;;6.52;71.45
48204;BME280;33994;50.998;5.864;2023-05-03T01:00:47;102266.22;;;6.43;72.03
48204;BME280;33994;50.998;5.864;2023-05-03T01:03:51;102260.19;;;6.44;71.99
48204;BME280;33994;50.998;5.864;2023-05-03T01:07:17;102262.72;;;6.41;72.38
48204;BME280;33994;50.998;5.864;2023-05-03T01:10:31;102268.69;;;6.37;72.22
48204;BME280;33994;50.998;5.864;2023-05-03T01:13:40;102264.25;;;6.33;72.51
48204;BME280;33994;50.998;5.864;2023-05-03T01:16:48;102271.19;;;6.34;72.52
48204;BME280;33994;50.998;5.864;2023-05-03T01:19:59;102257.25;;;6.32;72.82
48204;BME280;33994;50.998;5.864;2023-05-03T01:23:09;102252.94;;;6.32;72.79
48204;BME280;33994;50.998;5.864;2023-05-03T01:26:18;102252.22;;;6.38;72.81
48204;BME280;33994;50.998;5.864;2023-05-03T01:29:21;102247.13;;;6.41;72.71
48204;BME280;33994;50.998;5.864;2023-05-03T01:32:31;102250.47;;;6.37;72.49
48204;BME280;33994;50.998;5.864;2023-05-03T01:35:40;102254.47;;;6.24;72.84
48204;BME280;33994;50.998;5.864;2023-05-03T01:38:43;102252.59;;;6.19;73.13
48204;BME280;33994;50.998;5.864;2023-05-03T01:41:49;102258.47;;;6.10;73.58
48204;BME280;33994;50.998;5.864;2023-05-03T01:44:53;102254.91;;;6.08;73.37
48204;BME280;33994;50.998;5.864;2023-05-03T01:47:56;102271.19;;;6.01;73.91
48204;BME280;33994;50.998;5.864;2023-05-03T01:51:00;102264.25;;;6.01;73.82
48204;BME280;33994;50.998;5.864;2023-05-03T01:54:03;102269.25;;;5.94;74.05
48204;BME280;33994;50.998;5.864;2023-05-03T01:57:08;102275.09;;;5.87;74.48
48204;BME280;33994;50.998;5.864;2023-05-03T02:00:12;102277.72;;;5.87;74.79
48204;BME280;33994;50.998;5.864;2023-05-03T02:03:15;102289.00;;;5.87;74.58
48204;BME280;33994;50.998;5.864;2023-05-03T02:06:18;102288.81;;;5.81;75.03
48204;BME280;33994;50.998;5.864;2023-05-03T02:09:21;102290.31;;;5.73;75.18
48204;BME280;33994;50.998;5.864;2023-05-03T02:12:26;102286.44;;;5.58;75.85
48204;BME280;33994;50.998;5.864;2023-05-03T02:15:29;102291.59;;;5.57;75.92
48204;BME280;33994;50.998;5.864;2023-05-03T02:18:32;102283.81;;;5.57;75.86
48204;BME280;33994;50.998;5.864;2023-05-03T02:21:36;102284.72;;;5.59;76.17
48204;BME280;33994;50.998;5.864;2023-05-03T02:24:39;102287.44;;;5.64;75.76
48204;BME280;33994;50.998;5.864;2023-05-03T02:27:44;102284.03;;;5.65;75.90
48204;BME280;33994;50.998;5.864;2023-05-03T02:30:47;102287.50;;;5.65;75.94
48204;BME280;33994;50.998;5.864;2023-05-03T02:33:50;102293.47;;;5.63;75.63
48204;BME280;33994;50.998;5.864;2023-05-03T02:36:53;102286.31;;;5.54;76.15
48204;BME280;33994;50.998;5.864;2023-05-03T02:39:56;102282.84;;;5.53;76.06
48204;BME280;33994;50.998;5.864;2023-05-03T02:43:01;102282.03;;;5.56;76.05
48204;BME280;33994;50.998;5.864;2023-05-03T02:46:04;102277.75;;;5.56;76.24
48204;BME280;33994;50.998;5.864;2023-05-03T02:49:07;102275.16;;;5.56;76.31
48204;BME280;33994;50.998;5.864;2023-05-03T02:52:10;102273.34;;;5.54;76.15
48204;BME280;33994;50.998;5.864;2023-05-03T02:55:14;102272.38;;;5.50;76.48
48204;BME280;33994;50.998;5.864;2023-05-03T02:58:18;102272.28;;;5.47;76.63
48204;BME280;33994;50.998;5.864;2023-05-03T03:01:21;102267.97;;;5.48;76.40
48204;BME280;33994;50.998;5.864;2023-05-03T03:04:24;102259.09;;;5.40;76.96
48204;BME280;33994;50.998;5.864;2023-05-03T03:07:27;102250.22;;;5.33;76.78
48204;BME280;33994;50.998;5.864;2023-05-03T03:10:31;102253.66;;;5.32;77.21
48204;BME280;33994;50.998;5.864;2023-05-03T03:13:35;102247.56;;;5.30;77.27
48204;BME280;33994;50.998;5.864;2023-05-03T03:16:39;102233.75;;;5.31;77.17
48204;BME280;33994;50.998;5.864;2023-05-03T03:19:42;102224.97;;;5.26;77.22
48204;BME280;33994;50.998;5.864;2023-05-03T03:22:45;102227.41;;;5.21;77.52
48204;BME280;33994;50.998;5.864;2023-05-03T03:25:48;102222.94;;;5.16;77.59
48204;BME280;33994;50.998;5.864;2023-05-03T03:28:52;102217.66;;;5.13;77.66
48204;BME280;33994;50.998;5.864;2023-05-03T03:31:55;102223.59;;;5.08;77.96
48204;BME280;33994;50.998;5.864;2023-05-03T03:34:59;102218.38;;;5.07;78.11
48204;BME280;33994;50.998;5.864;2023-05-03T03:38:02;102226.91;;;5.04;78.23
48204;BME280;33994;50.998;5.864;2023-05-03T03:41:05;102225.97;;;5.02;78.10
48204;BME280;33994;50.998;5.864;2023-05-03T03:44:10;102234.56;;;5.00;78.45
48204;BME280;33994;50.998;5.864;2023-05-03T03:47:13;102230.91;;;4.93;78.44
48204;BME280;33994;50.998;5.864;2023-05-03T03:50:16;102232.66;;;4.94;78.43
48204;BME280;33994;50.998;5.864;2023-05-03T03:53:19;102225.72;;;4.93;78.58
48204;BME280;33994;50.998;5.864;2023-05-03T03:56:22;102238.44;;;4.87;78.82
48204;BME280;33994;50.998;5.864;2023-05-03T03:59:27;102243.59;;;4.85;78.93
48204;BME280;33994;50.998;5.864;2023-05-03T04:02:30;102235.78;;;4.84;79.13
48204;BME280;33994;50.998;5.864;2023-05-03T04:05:33;102241.75;;;4.81;79.16
48204;BME280;33994;50.998;5.864;2023-05-03T04:08:36;102234.94;;;4.85;78.88
48204;BME280;33994;50.998;5.864;2023-05-03T04:11:39;102230.66;;;4.87;78.85
48204;BME280;33994;50.998;5.864;2023-05-03T04:14:44;102226.28;;;4.84;78.97
48204;BME280;33994;50.998;5.864;2023-05-03T04:17:47;102221.16;;;4.87;78.91
48204;BME280;33994;50.998;5.864;2023-05-03T04:20:50;102236.69;;;4.86;78.89
48204;BME280;33994;50.998;5.864;2023-05-03T04:23:53;102228.06;;;4.87;78.81
48204;BME280;33994;50.998;5.864;2023-05-03T04:26:56;102236.69;;;4.86;78.76
48204;BME280;33994;50.998;5.864;2023-05-03T04:30:01;102230.66;;;4.87;78.69
48204;BME280;33994;50.998;5.864;2023-05-03T04:33:05;102235.78;;;4.84;78.62
48204;BME280;33994;50.998;5.864;2023-05-03T04:36:08;102254.75;;;4.83;78.83
48204;BME280;33994;50.998;5.864;2023-05-03T04:39:11;102262.59;;;4.84;78.88
48204;BME280;33994;50.998;5.864;2023-05-03T04:42:14;102276.41;;;4.85;78.63
48204;BME280;33994;50.998;5.864;2023-05-03T04:45:19;102265.22;;;4.86;78.90
48204;BME280;33994;50.998;5.864;2023-05-03T04:48:22;102277.66;;;4.96;78.74
48204;BME280;33994;50.998;5.864;2023-05-03T04:51:25;102276.56;;;5.17;78.40
48204;BME280;33994;50.998;5.864;2023-05-03T04:54:29;102278.19;;;5.42;77.74
48204;BME280;33994;50.998;5.864;2023-05-03T04:57:32;102283.16;;;5.64;77.25
48204;BME280;33994;50.998;5.864;2023-05-03T05:00:38;102270.88;;;5.90;76.17
48204;BME280;33994;50.998;5.864;2023-05-03T05:03:41;102273.00;;;6.03;75.43
48204;BME280;33994;50.998;5.864;2023-05-03T05:06:44;102282.16;;;6.22;74.51
48204;BME280;33994;50.998;5.864;2023-05-03T05:09:47;102281.72;;;6.40;74.55
48204;BME280;33994;50.998;5.864;2023-05-03T05:12:50;102284.31;;;7.11;72.44
48204;BME280;33994;50.998;5.864;2023-05-03T05:15:55;102285.81;;;7.39;71.01
48204;BME280;33994;50.998;5.864;2023-05-03T05:18:58;102300.47;;;7.36;70.86
48204;BME280;33994;50.998;5.864;2023-05-03T05:22:01;102301.34;;;7.36;70.59
48204;BME280;33994;50.998;5.864;2023-05-03T05:25:05;102301.56;;;7.44;70.06
48204;BME280;33994;50.998;5.864;2023-05-03T05:28:09;102305.34;;;7.60;69.16
48204;BME280;33994;50.998;5.864;2023-05-03T05:31:13;102315.28;;;7.38;69.16
48204;BME280;33994;50.998;5.864;2023-05-03T05:34:16;102316.38;;;7.10;70.26
48204;BME280;33994;50.998;5.864;2023-05-03T05:37:19;102317.66;;;6.91;70.70
48204;BME280;33994;50.998;5.864;2023-05-03T05:40:22;102319.28;;;6.86;70.99
48204;BME280;33994;50.998;5.864;2023-05-03T05:43:25;102325.09;;;6.76;71.21
48204;BME280;33994;50.998;5.864;2023-05-03T05:46:30;102325.50;;;6.93;71.11
48204;BME280;33994;50.998;5.864;2023-05-03T05:49:33;102319.84;;;7.11;70.69
48204;BME280;33994;50.998;5.864;2023-05-03T05:52:36;102322.97;;;7.34;70.16
48204;BME280;33994;50.998;5.864;2023-05-03T05:55:40;102331.06;;;7.44;69.93
48204;BME280;33994;50.998;5.864;2023-05-03T05:58:43;102320.03;;;7.56;69.21
48204;BME280;33994;50.998;5.864;2023-05-03T06:01:47;102316.47;;;7.52;69.45
48204;BME280;33994;50.998;5.864;2023-05-03T06:04:50;102314.19;;;7.68;69.29
48204;BME280;33994;50.998;5.864;2023-05-03T06:07:53;102319.88;;;7.92;68.89
48204;BME280;33994;50.998;5.864;2023-05-03T06:10:57;102313.34;;;8.13;68.18
48204;BME280;33994;50.998;5.864;2023-05-03T06:14:00;102314.38;;;8.22;67.64
48204;BME280;33994;50.998;5.864;2023-05-03T06:17:04;102315.81;;;8.05;68.56
48204;BME280;33994;50.998;5.864;2023-05-03T06:20:08;102322.41;;;8.32;67.61
48204;BME280;33994;50.998;5.864;2023-05-03T06:23:11;102322.69;;;8.48;67.11
48204;BME280;33994;50.998;5.864;2023-05-03T06:26:14;102318.31;;;8.47;66.84
48204;BME280;33994;50.998;5.864;2023-05-03T06:29:17;102316.78;;;8.60;66.82
48204;BME280;33994;50.998;5.864;2023-05-03T06:32:22;102319.66;;;8.75;65.99
48204;BME280;33994;50.998;5.864;2023-05-03T06:35:25;102317.13;;;8.80;66.12
48204;BME280;33994;50.998;5.864;2023-05-03T06:38:28;102316.59;;;9.02;65.72
48204;BME280;33994;50.998;5.864;2023-05-03T06:41:32;102315.88;;;9.11;64.86
48204;BME280;33994;50.998;5.864;2023-05-03T06:44:35;102322.97;;;9.20;64.60
48204;BME280;33994;50.998;5.864;2023-05-03T06:47:40;102319.13;;;9.56;63.39
48204;BME280;33994;50.998;5.864;2023-05-03T06:50:43;102319.31;;;9.69;62.98
48204;BME280;33994;50.998;5.864;2023-05-03T06:53:46;102322.13;;;9.85;62.29
48204;BME280;33994;50.998;5.864;2023-05-03T06:56:49;102319.41;;;9.79;62.55
48204;BME280;33994;50.998;5.864;2023-05-03T06:59:53;102319.25;;;9.65;62.77
48204;BME280;33994;50.998;5.864;2023-05-03T07:02:57;102300.88;;;9.59;62.89
48204;BME280;33994;50.998;5.864;2023-05-03T07:06:00;102301.91;;;9.70;63.31
48204;BME280;33994;50.998;5.864;2023-05-03T07:09:04;102298.81;;;10.05;62.40
48204;BME280;33994;50.998;5.864;2023-05-03T07:12:07;102309.19;;;9.98;62.11
48204;BME280;33994;50.998;5.864;2023-05-03T07:15:10;102294.28;;;9.90;62.58
48204;BME280;33994;50.998;5.864;2023-05-03T07:18:15;102302.44;;;10.19;61.26
48204;BME280;33994;50.998;5.864;2023-05-03T07:21:18;102299.16;;;10.38;60.67
48204;BME280;33994;50.998;5.864;2023-05-03T07:24:21;102308.91;;;10.59;60.24
48204;BME280;33994;50.998;5.864;2023-05-03T07:27:24;102299.44;;;10.75;59.72
48204;BME280;33994;50.998;5.864;2023-05-03T07:30:28;102299.56;;;10.84;59.37
48204;BME280;33994;50.998;5.864;2023-05-03T07:33:34;102297.06;;;11.01;58.86
48204;BME280;33994;50.998;5.864;2023-05-03T07:36:37;102282.22;;;10.99;59.04
48204;BME280;33994;50.998;5.864;2023-05-03T07:39:41;102296.22;;;11.07;58.21
48204;BME280;33994;50.998;5.864;2023-05-03T07:42:44;102283.16;;;11.07;58.01
48204;BME280;33994;50.998;5.864;2023-05-03T07:45:47;102290.16;;;11.17;58.21
48204;BME280;33994;50.998;5.864;2023-05-03T07:48:52;102286.69;;;11.13;57.79
48204;BME280;33994;50.998;5.864;2023-05-03T07:51:55;102277.13;;;11.22;57.03
48204;BME280;33994;50.998;5.864;2023-05-03T07:54:58;102282.38;;;11.26;57.67
48204;BME280;33994;50.998;5.864;2023-05-03T07:58:01;102278.06;;;11.33;57.63
48204;BME280;33994;50.998;5.864;2023-05-03T08:01:04;102285.00;;;11.32;57.25
48204;BME280;33994;50.998;5.864;2023-05-03T08:04:09;102284.09;;;11.24;57.10
48204;BME280;33994;50.998;5.864;2023-05-03T08:07:12;102287.59;;;11.23;56.99
48204;BME280;33994;50.998;5.864;2023-05-03T08:10:15;102282.41;;;11.32;57.04
48204;BME280;33994;50.998;5.864;2023-05-03T08:13:18;102283.31;;;11.39;56.83
48204;BME280;33994;50.998;5.864;2023-05-03T08:16:21;102283.34;;;11.40;56.90
48204;BME280;33994;50.998;5.864;2023-05-03T08:19:26;102282.44;;;11.40;56.30
48204;BME280;33994;50.998;5.864;2023-05-03T08:22:29;102278.94;;;11.39;56.28
48204;BME280;33994;50.998;5.864;2023-05-03T08:25:32;102282.44;;;11.38;55.68
48204;BME280;33994;50.998;5.864;2023-05-03T08:28:35;102282.41;;;11.32;55.81
48204;BME280;33994;50.998;5.864;2023-05-03T08:31:38;102273.69;;;11.33;55.88
48204;BME280;33994;50.998;5.864;2023-05-03T08:34:43;102275.47;;;11.37;55.97
48204;BME280;33994;50.998;5.864;2023-05-03T08:37:46;102264.06;;;11.35;55.83
48204;BME280;33994;50.998;5.864;2023-05-03T08:40:50;102251.00;;;11.37;56.10
48204;BME280;33994;50.998;5.864;2023-05-03T08:43:55;102238.78;;;11.39;55.62
48204;BME280;33994;50.998;5.864;2023-05-03T08:46:58;102248.38;;;11.40;55.67
48204;BME280;33994;50.998;5.864;2023-05-03T08:50:04;102244.03;;;11.43;55.34
48204;BME280;33994;50.998;5.864;2023-05-03T08:53:08;102231.81;;;11.42;55.36
48204;BME280;33994;50.998;5.864;2023-05-03T08:56:27;102230.84;;;11.24;54.80
48204;BME280;33994;50.998;5.864;2023-05-03T08:59:31;102241.31;;;11.17;55.70
48204;BME280;33994;50.998;5.864;2023-05-03T09:02:34;102252.72;;;11.29;55.34
48204;BME280;33994;50.998;5.864;2023-05-03T09:05:38;102250.97;;;11.32;54.45
48204;BME280;33994;50.998;5.864;2023-05-03T09:08:42;102249.25;;;11.34;54.74
48204;BME280;33994;50.998;5.864;2023-05-03T09:11:45;102248.34;;;11.29;54.54
48204;BME280;33994;50.998;5.864;2023-05-03T09:14:48;102249.25;;;11.34;53.85
48204;BME280;33994;50.998;5.864;2023-05-03T09:18:07;102250.13;;;11.33;52.32
48204;BME280;33994;50.998;5.864;2023-05-03T09:21:11;102245.69;;;11.25;52.24
48204;BME280;33994;50.998;5.864;2023-05-03T09:24:21;102231.72;;;11.18;52.62
48204;BME280;33994;50.998;5.864;2023-05-03T09:27:24;102226.44;;;11.15;52.86
48204;BME280;33994;50.998;5.864;2023-05-03T09:30:28;102222.94;;;11.10;53.27
48204;BME280;33994;50.998;5.864;2023-05-03T09:33:32;102207.22;;;11.13;52.66
48204;BME280;33994;50.998;5.864;2023-05-03T09:40:20;102222.94;;;11.11;52.24
48204;BME280;33994;50.998;5.864;2023-05-03T09:43:24;102229.06;;;11.13;52.06
48204;BME280;33994;50.998;5.864;2023-05-03T09:46:37;102226.41;;;11.09;52.70
48204;BME280;33994;50.998;5.864;2023-05-03T09:49:49;102229.06;;;11.15;52.95
48204;BME280;33994;50.998;5.864;2023-05-03T09:52:52;102232.59;;;11.18;53.62
48204;BME280;33994;50.998;5.864;2023-05-03T09:56:02;102217.75;;;11.19;53.60
48204;BME280;33994;50.998;5.864;2023-05-03T09:59:08;102223.00;;;11.27;53.44
48204;BME280;33994;50.998;5.864;2023-05-03T10:02:12;102224.78;;;11.29;53.39
48204;BME280;33994;50.998;5.864;2023-05-03T10:05:17;102214.28;;;11.26;53.40
48204;BME280;33994;50.998;5.864;2023-05-03T10:08:24;102220.38;;;11.28;52.20
48204;BME280;33994;50.998;5.864;2023-05-03T10:11:33;102205.56;;;11.30;53.33
48204;BME280;33994;50.998;5.864;2023-05-03T10:14:39;102221.31;;;11.33;53.25
48204;BME280;33994;50.998;5.864;2023-05-03T10:17:43;102210.81;;;11.33;53.09
48204;BME280;33994;50.998;5.864;2023-05-03T10:20:51;102223.94;;;11.39;52.39
48204;BME280;33994;50.998;5.864;2023-05-03T10:24:11;102222.19;;;11.43;51.82
48204;BME280;33994;50.998;5.864;2023-05-03T10:27:16;102210.00;;;11.48;52.37
48204;BME280;33994;50.998;5.864;2023-05-03T10:30:27;102207.38;;;11.51;52.54
48204;BME280;33994;50.998;5.864;2023-05-03T10:33:31;102208.28;;;11.53;52.46
48204;BME280;33994;50.998;5.864;2023-05-03T10:36:35;102188.22;;;11.64;52.87
48204;BME280;33994;50.998;5.864;2023-05-03T10:39:43;102194.34;;;11.63;52.68
48204;BME280;33994;50.998;5.864;2023-05-03T10:42:50;102186.47;;;11.63;51.90
48204;BME280;33994;50.998;5.864;2023-05-03T10:45:55;102186.47;;;11.68;51.87
48204;BME280;33994;50.998;5.864;2023-05-03T10:49:25;102184.72;;;11.70;51.06
48204;BME280;33994;50.998;5.864;2023-05-03T10:52:50;102184.72;;;11.70;50.67
48204;BME280;33994;50.998;5.864;2023-05-03T10:56:21;102183.88;;;11.76;51.17
48204;BME280;33994;50.998;5.864;2023-05-03T10:59:53;102186.50;;;11.76;51.52
48204;BME280;33994;50.998;5.864;2023-05-03T11:03:29;102191.75;;;11.83;51.46
48204;BME280;33994;50.998;5.864;2023-05-03T11:10:26;102184.75;;;11.88;51.89
48204;BME280;33994;50.998;5.864;2023-05-03T11:13:29;102183.03;;;12.00;50.89
48204;BME280;33994;50.998;5.864;2023-05-03T11:16:34;102172.53;;;12.00;50.83
48204;BME280;33994;50.998;5.864;2023-05-03T11:19:37;102175.16;;;12.04;50.46
48204;BME280;33994;50.998;5.864;2023-05-03T11:22:40;102172.53;;;12.03;50.42
48204;BME280;33994;50.998;5.864;2023-05-03T11:25:43;102160.31;;;11.99;50.54
48204;BME280;33994;50.998;5.864;2023-05-03T11:28:47;102162.94;;;12.02;50.29
48204;BME280;33994;50.998;5.864;2023-05-03T11:31:52;102166.41;;;12.08;51.08
48204;BME280;33994;50.998;5.864;2023-05-03T11:34:56;102155.03;;;12.08;51.20
48204;BME280;33994;50.998;5.864;2023-05-03T11:37:59;102154.19;;;12.10;51.43
48204;BME280;33994;50.998;5.864;2023-05-03T11:41:11;102139.31;;;12.17;51.96
48204;BME280;33994;50.998;5.864;2023-05-03T11:44:14;102140.19;;;12.24;50.65
48204;BME280;33994;50.998;5.864;2023-05-03T11:47:19;102139.34;;;12.29;51.03
48204;BME280;33994;50.998;5.864;2023-05-03T11:50:26;102130.59;;;12.30;50.58
48204;BME280;33994;50.998;5.864;2023-05-03T11:53:29;102132.34;;;12.33;51.14
48204;BME280;33994;50.998;5.864;2023-05-03T11:56:32;102127.09;;;12.37;50.82
48204;BME280;33994;50.998;5.864;2023-05-03T11:59:36;102125.31;;;12.46;49.70
48204;BME280;33994;50.998;5.864;2023-05-03T12:02:41;102130.53;;;12.56;49.48
48204;BME280;33994;50.998;5.864;2023-05-03T12:05:45;102123.53;;;12.57;48.55
48204;BME280;33994;50.998;5.864;2023-05-03T12:08:48;102125.28;;;12.61;48.87
48204;BME280;33994;50.998;5.864;2023-05-03T12:11:51;102123.53;;;12.63;49.22
48204;BME280;33994;50.998;5.864;2023-05-03T12:14:56;102108.66;;;12.60;49.51
48204;BME280;33994;50.998;5.864;2023-05-03T12:18:04;102106.00;;;12.65;49.25
48204;BME280;33994;50.998;5.864;2023-05-03T12:21:08;102115.63;;;12.75;48.64
48204;BME280;33994;50.998;5.864;2023-05-03T12:24:11;102114.75;;;12.78;48.03
48204;BME280;33994;50.998;5.864;2023-05-03T12:27:14;102109.47;;;12.79;47.72
48204;BME280;33994;50.998;5.864;2023-05-03T12:30:17;102105.06;;;12.84;48.08
48204;BME280;33994;50.998;5.864;2023-05-03T12:33:22;102105.94;;;12.89;47.95
48204;BME280;33994;50.998;5.864;2023-05-03T12:36:25;102111.16;;;12.93;48.20
48204;BME280;33994;50.998;5.864;2023-05-03T12:39:30;102090.19;;;12.89;48.05
48204;BME280;33994;50.998;5.864;2023-05-03T12:42:33;102085.78;;;12.95;48.08
48204;BME280;33994;50.998;5.864;2023-05-03T12:45:36;102076.13;;;13.04;47.12
48204;BME280;33994;50.998;5.864;2023-05-03T12:48:41;102077.81;;;13.10;47.68
48204;BME280;33994;50.998;5.864;2023-05-03T12:51:44;102073.44;;;13.12;47.35
48204;BME280;33994;50.998;5.864;2023-05-03T12:54:47;102077.84;;;13.08;47.27
48204;BME280;33994;50.998;5.864;2023-05-03T12:57:51;102074.31;;;13.11;46.97
48204;BME280;33994;50.998;5.864;2023-05-03T13:00:54;102061.13;;;13.15;47.01
48204;BME280;33994;50.998;5.864;2023-05-03T13:04:00;102054.09;;;13.22;46.04
48204;BME280;33994;50.998;5.864;2023-05-03T13:07:03;102060.16;;;13.33;46.05
48204;BME280;33994;50.998;5.864;2023-05-03T13:10:07;102051.38;;;13.34;44.81
48204;BME280;33994;50.998;5.864;2023-05-03T13:13:10;102044.38;;;13.33;44.71
48204;BME280;33994;50.998;5.864;2023-05-03T13:16:14;102045.25;;;13.37;45.00
48204;BME280;33994;50.998;5.864;2023-05-03T13:19:18;102031.19;;;13.41;45.13
48204;BME280;33994;50.998;5.864;2023-05-03T13:22:22;102023.25;;;13.49;44.89
48204;BME280;33994;50.998;5.864;2023-05-03T13:25:24;102009.25;;;13.50;45.21
48204;BME280;33994;50.998;5.864;2023-05-03T13:28:28;102004.00;;;13.48;45.49
48204;BME280;33994;50.998;5.864;2023-05-03T13:31:31;102012.75;;;13.52;45.54
48204;BME280;33994;50.998;5.864;2023-05-03T13:34:35;101995.25;;;13.51;45.30
48204;BME280;33994;50.998;5.864;2023-05-03T13:37:38;101999.59;;;13.55;45.11
48204;BME280;33994;50.998;5.864;2023-05-03T13:40:41;101982.88;;;13.63;44.53
48204;BME280;33994;50.998;5.864;2023-05-03T13:43:45;101985.44;;;13.68;44.01
48204;BME280;33994;50.998;5.864;2023-05-03T13:46:49;101988.03;;;13.71;44.44
48204;BME280;33994;50.998;5.864;2023-05-03T13:49:55;101971.44;;;13.69;44.83
48204;BME280;33994;50.998;5.864;2023-05-03T13:52:58;101972.28;;;13.71;44.03
48204;BME280;33994;50.998;5.864;2023-05-03T13:56:02;101977.50;;;13.74;44.02
48204;BME280;33994;50.998;5.864;2023-05-03T13:59:06;101966.84;;;13.86;44.48
48204;BME280;33994;50.998;5.864;2023-05-03T14:02:09;101957.16;;;13.93;44.20
48204;BME280;33994;50.998;5.864;2023-05-03T14:05:15;101956.28;;;13.93;44.27
48204;BME280;33994;50.998;5.864;2023-05-03T14:08:19;101951.09;;;13.86;44.61
48204;BME280;33994;50.998;5.864;2023-05-03T14:11:22;101944.06;;;13.89;44.37
48204;BME280;33994;50.998;5.864;2023-05-03T14:14:26;101944.00;;;13.92;44.03
48204;BME280;33994;50.998;5.864;2023-05-03T14:17:29;101948.41;;;13.93;44.18
48204;BME280;33994;50.998;5.864;2023-05-03T14:20:34;101927.38;;;13.90;44.18
48204;BME280;33994;50.998;5.864;2023-05-03T14:23:37;101929.13;;;13.92;44.40
48204;BME280;33994;50.998;5.864;2023-05-03T14:26:40;101938.69;;;13.98;44.39
48204;BME280;33994;50.998;5.864;2023-05-03T14:29:43;101933.44;;;13.98;44.55
48204;BME280;33994;50.998;5.864;2023-05-03T14:32:47;101924.69;;;13.94;44.99
48204;BME280;33994;50.998;5.864;2023-05-03T14:35:51;101928.09;;;14.04;45.75
48204;BME280;33994;50.998;5.864;2023-05-03T14:38:55;101919.31;;;14.05;45.21
48204;BME280;33994;50.998;5.864;2023-05-03T14:41:58;101919.31;;;14.05;44.50
48204;BME280;33994;50.998;5.864;2023-05-03T14:45:01;101917.53;;;14.07;44.00
48204;BME280;33994;50.998;5.864;2023-05-03T14:48:05;101921.97;;;14.03;43.96
48204;BME280;33994;50.998;5.864;2023-05-03T14:51:10;101917.63;;;14.01;43.66
48204;BME280;33994;50.998;5.864;2023-05-03T14:54:13;101906.19;;;14.02;44.14
48204;BME280;33994;50.998;5.864;2023-05-03T14:57:16;101903.50;;;14.08;44.35
48204;BME280;33994;50.998;5.864;2023-05-03T15:00:20;101902.53;;;14.15;43.92
48204;BME280;33994;50.998;5.864;2023-05-03T15:03:23;101900.75;;;14.17;43.78
48204;BME280;33994;50.998;5.864;2023-05-03T15:06:28;101897.28;;;14.15;43.92
48204;BME280;33994;50.998;5.864;2023-05-03T15:09:31;101893.75;;;14.15;44.30
48204;BME280;33994;50.998;5.864;2023-05-03T15:12:36;101893.66;;;14.24;44.07
48204;BME280;33994;50.998;5.864;2023-05-03T15:15:40;101891.84;;;14.26;43.81
48204;BME280;33994;50.998;5.864;2023-05-03T15:18:43;101886.66;;;14.23;43.88
48204;BME280;33994;50.998;5.864;2023-05-03T15:21:49;101886.66;;;14.21;43.53
48204;BME280;33994;50.998;5.864;2023-05-03T15:24:52;101885.72;;;14.25;43.99
48204;BME280;33994;50.998;5.864;2023-05-03T15:27:55;101894.47;;;14.26;43.84
48204;BME280;33994;50.998;5.864;2023-05-03T15:30:58;101888.34;;;14.25;44.33
48204;BME280;33994;50.998;5.864;2023-05-03T15:34:02;101882.16;;;14.29;44.66
48204;BME280;33994;50.998;5.864;2023-05-03T15:37:06;101891.78;;;14.32;44.75
48204;BME280;33994;50.998;5.864;2023-05-03T15:40:10;101882.13;;;14.32;44.62
48204;BME280;33994;50.998;5.864;2023-05-03T15:43:13;101871.63;;;14.29;44.82
48204;BME280;33994;50.998;5.864;2023-05-03T15:46:16;101876.03;;;14.30;44.99
48204;BME280;33994;50.998;5.864;2023-05-03T15:49:20;101870.72;;;14.32;45.11
48204;BME280;33994;50.998;5.864;2023-05-03T15:52:24;101883.03;;;14.31;44.61
48204;BME280;33994;50.998;5.864;2023-05-03T15:55:28;101876.88;;;14.32;43.88
48204;BME280;33994;50.998;5.864;2023-05-03T15:58:31;101866.38;;;14.29;43.43
48204;BME280;33994;50.998;5.864;2023-05-03T16:01:35;101868.06;;;14.33;43.96
48204;BME280;33994;50.998;5.864;2023-05-03T16:04:38;101856.63;;;14.36;44.34
48204;BME280;33994;50.998;5.864;2023-05-03T16:07:42;101860.13;;;14.38;44.63
48204;BME280;33994;50.998;5.864;2023-05-03T16:10:45;101865.31;;;14.41;44.67
48204;BME280;33994;50.998;5.864;2023-05-03T16:13:49;101855.69;;;14.42;44.81
48204;BME280;33994;50.998;5.864;2023-05-03T16:16:53;101860.06;;;14.43;44.60
48204;BME280;33994;50.998;5.864;2023-05-03T16:19:55;101856.50;;;14.47;44.28